ADDS METAR Data INFO
IDs: Format: Raw Decoded Include TAF

Data at: 0200 UTC 21 Apr 2018

KGVT 210130Z AUTO 11004KT 10SM CLR 15/07 A3010 RMK AO2
KGVT 210110Z AUTO 12004KT 10SM CLR 16/07 A3010 RMK AO2
KGVT 210050Z AUTO 13006KT 10SM CLR 17/07 A3010 RMK AO2
KGVT 210030Z AUTO 12006KT 10SM CLR 18/06 A3010 RMK AO2
KGVT 210010Z AUTO 11005KT 10SM CLR 19/06 A3010 RMK AO2
KGVT 202350Z AUTO 11010KT 10SM CLR 20/06 A3011 RMK AO2
KGVT 202330Z AUTO 10010G14KT 10SM CLR 20/05 A3011 RMK AO2
KGVT 202310Z AUTO 12011G16KT 10SM CLR 21/05 A3011 RMK AO2
KGVT 202255Z AUTO 13009G15KT 10SM CLR 21/06 A3012 RMK AO2 LTG DSNT NW
KGVT 202230Z AUTO 13007KT 10SM CLR 21/05 A3013 RMK AO2
KGVT 202210Z AUTO 11008G15KT 075V145 10SM CLR 21/06 A3013 RMK AO2
KGVT 202150Z AUTO 10010G17KT 10SM CLR 21/05 A3013 RMK AO2
KGVT 202130Z AUTO 11010G17KT 10SM CLR 21/05 A3012 RMK AO2
KGVT 202110Z AUTO 13013KT 10SM CLR 21/05 A3014 RMK AO2
KGVT 202050Z AUTO 10007G16KT 10SM CLR 20/05 A3017 RMK AO2 LTG DSNT NW
KGVT 202030Z AUTO 10005KT 10SM CLR 20/05 A3018 RMK AO2
KGVT 202010Z AUTO 10010G16KT 10SM CLR 20/05 A3019 RMK AO2
KGVT 201950Z AUTO 11010G15KT 10SM CLR 20/04 A3021 RMK AO2
KGVT 201930Z AUTO 09011G16KT 10SM CLR 18/04 A3022 RMK AO2
KGVT 201910Z AUTO 15008G14KT 10SM CLR 18/03 A3023 RMK AO2
KGVT 201850Z AUTO 13008G14KT 10SM CLR 19/04 A3025 RMK AO2
KGVT 201830Z AUTO 14008KT 10SM CLR 19/04 A3026 RMK AO2
KGVT 201810Z AUTO 12007KT 10SM CLR 17/03 A3028 RMK AO2
KGVT 201750Z AUTO 14008KT 095V155 10SM CLR 17/03 A3029 RMK AO2
KGVT 201730Z AUTO 11008KT 10SM CLR 17/03 A3029 RMK AO2
KGVT 201710Z AUTO 11006KT 10SM CLR 17/03 A3030 RMK AO2
KGVT 201650Z AUTO 10008G14KT 10SM CLR 16/03 A3031 RMK AO2
KGVT 201630Z AUTO 12008KT 10SM CLR 16/03 A3032 RMK AO2
KGVT 201610Z AUTO 12011G16KT 10SM CLR 15/02 A3032 RMK AO2
KGVT 201550Z AUTO 08008G14KT 10SM CLR 15/02 A3032 RMK AO2
KGVT 201530Z AUTO 09011G15KT 10SM CLR 15/02 A3032 RMK AO2
KGVT 201510Z AUTO 09009KT 10SM CLR 13/02 A3033 RMK AO2
KGVT 201450Z AUTO 11008KT 10SM CLR 13/02 A3033 RMK AO2
KGVT 201430Z AUTO 09009G16KT 10SM CLR 12/02 A3033 RMK AO2
KGVT 201410Z AUTO 09011G16KT 10SM CLR 11/03 A3033 RMK AO2
KGVT 201350Z AUTO 09010G14KT 10SM CLR 11/03 A3034 RMK AO2
KGVT 201330Z AUTO 09005KT 10SM CLR 11/03 A3034 RMK AO2
KGVT 201310Z AUTO 08006KT 10SM CLR 10/03 A3033 RMK AO2
KGVT 201255Z AUTO 08005KT 10SM CLR 10/03 A3032 RMK AO2
KGVT 201230Z AUTO 08005KT 10SM CLR 09/03 A3032 RMK AO2
KGVT 201210Z AUTO 08003KT 10SM CLR 08/03 A3032 RMK AO2
KGVT 201150Z AUTO 08003KT 10SM CLR 08/03 A3032 RMK AO2
KGVT 201130Z AUTO 09004KT 10SM CLR 08/03 A3030 RMK AO2
KGVT 201110Z AUTO 10006KT 10SM CLR 09/03 A3030 RMK AO2
KGVT 201050Z AUTO 09007KT 10SM CLR 09/04 A3030 RMK AO2
KGVT 201030Z AUTO 07005KT 10SM CLR 09/05 A3030 RMK AO2
KGVT 201010Z AUTO 08003KT 10SM CLR 09/05 A3030 RMK AO2
KGVT 200950Z AUTO 08003KT 10SM CLR 09/05 A3030 RMK AO2
KGVT 200930Z AUTO 00000KT 10SM CLR 08/05 A3030 RMK AO2
KGVT 200910Z AUTO 00000KT 10SM CLR 09/05 A3031 RMK AO2
KGVT 200850Z AUTO 09004KT 10SM CLR 10/05 A3029 RMK AO2
KGVT 200830Z AUTO 10005KT 10SM CLR 10/05 A3029 RMK AO2
KGVT 200810Z AUTO 09003KT 10SM CLR 10/05 A3029 RMK AO2
KGVT 200750Z AUTO 07003KT 10SM CLR 10/05 A3028 RMK AO2
KGVT 200730Z AUTO 06003KT 10SM CLR 10/05 A3027 RMK AO2
KGVT 200710Z AUTO 06003KT 10SM CLR 11/05 A3027 RMK AO2
KGVT 200650Z AUTO 00000KT 10SM CLR 10/05 A3028 RMK AO2
KGVT 200630Z AUTO 05003KT 10SM CLR 10/05 A3028 RMK AO2
KGVT 200610Z AUTO 00000KT 10SM CLR 11/05 A3028 RMK AO2
KGVT 200550Z AUTO 01003KT 10SM CLR 11/05 A3028 RMK AO2
KGVT 200530Z AUTO 00000KT 10SM CLR 11/05 A3028 RMK AO2
KGVT 200510Z AUTO 00000KT 10SM CLR 11/05 A3027 RMK AO2
KGVT 200450Z AUTO 00000KT 10SM CLR 11/05 A3028 RMK AO2
KGVT 200430Z AUTO 00000KT 10SM CLR 10/06 A3029 RMK AO2
KGVT 200410Z AUTO 00000KT 10SM CLR 10/05 A3029 RMK AO2
KGVT 200350Z AUTO 00000KT 10SM CLR 11/05 A3029 RMK AO2
KGVT 200330Z AUTO 00000KT 10SM CLR 11/05 A3029 RMK AO2
KGVT 200310Z AUTO 00000KT 10SM CLR 11/06 A3028 RMK AO2
KGVT 200250Z AUTO 00000KT 10SM CLR 11/06 A3029 RMK AO2
KGVT 200230Z AUTO 00000KT 10SM CLR 12/06 A3028 RMK AO2
KGVT 200210Z AUTO 00000KT 10SM CLR 12/06 A3028 RMK AO2
KGVT 200150Z AUTO 00000KT 10SM CLR 13/06 A3027 RMK AO2
KGVT 200130Z AUTO 00000KT 10SM CLR 15/05 A3027 RMK AO2
KGVT 200110Z AUTO 00000KT 10SM CLR 16/03 A3027 RMK AO2
KGVT 200050Z AUTO 00000KT 10SM CLR 16/04 A3026 RMK AO2
KGVT 200030Z AUTO 01003KT 10SM CLR 18/02 A3025 RMK AO2
KGVT 200010Z AUTO 01004KT 10SM CLR 20/01 A3026 RMK AO2
KGVT 192350Z AUTO 01005KT 10SM CLR 20/01 A3026 RMK AO2
KGVT 192330Z AUTO 36005KT 10SM CLR 21/01 A3027 RMK AO2
KGVT 192310Z AUTO 36009KT 10SM CLR 21/01 A3027 RMK AO2
KGVT 192250Z AUTO 01006KT 10SM CLR 21/00 A3027 RMK AO2
KGVT 192230Z AUTO 04005G14KT 10SM CLR 21/00 A3027 RMK AO2
KGVT 192210Z AUTO 04004G15KT 10SM CLR 21/00 A3027 RMK AO2
KGVT 192150Z AUTO 01004KT 10SM CLR 21/01 A3028 RMK AO2
KGVT 192130Z AUTO 03007KT 10SM CLR 21/01 A3029 RMK AO2
KGVT 192110Z AUTO 36008G11KT 10SM CLR 21/02 A3029 RMK AO2
KGVT 192050Z AUTO 01008KT 10SM CLR 21/01 A3031 RMK AO2
KGVT 192030Z AUTO 01007KT 10SM CLR 21/01 A3032 RMK AO2
KGVT 192010Z AUTO 34009G15KT 325V025 10SM CLR 20/01 A3033 RMK AO2
KGVT 191950Z AUTO 03006G16KT 10SM CLR 20/01 A3033 RMK AO2
KGVT 191930Z AUTO 01008KT 10SM CLR 19/01 A3034 RMK AO2
KGVT 191910Z AUTO 04010KT 355V065 10SM CLR 20/01 A3034 RMK AO2
KGVT 191850Z AUTO 03007KT 10SM CLR 20/02 A3035 RMK AO2
KGVT 191830Z AUTO 04010G15KT 10SM CLR 19/01 A3036 RMK AO2
KGVT 191810Z AUTO 02005G15KT 10SM CLR 19/01 A3036 RMK AO2
KGVT 191750Z AUTO 04008G14KT 10SM CLR 19/01 A3036 RMK AO2
KGVT 191730Z AUTO 34011G18KT 10SM CLR 18/00 A3037 RMK AO2
KGVT 191710Z AUTO 01008G16KT 10SM CLR 18/01 A3037 RMK AO2
KGVT 191650Z AUTO 01011G16KT 10SM CLR 17/01 A3038 RMK AO2
KGVT 191630Z AUTO 03008G16KT 10SM CLR 17/01 A3039 RMK AO2
KGVT 191610Z AUTO 01010G15KT 325V025 10SM CLR 17/01 A3039 RMK AO2
KGVT 191550Z AUTO 03011G15KT 10SM CLR 16/00 A3039 RMK AO2
KGVT 191530Z AUTO 36012G17KT 10SM CLR 16/00 A3040 RMK AO2
KGVT 191510Z AUTO 01010G15KT 10SM CLR 15/00 A3038 RMK AO2
KGVT 191450Z AUTO 01011G16KT 10SM CLR 15/01 A3038 RMK AO2
KGVT 191430Z AUTO 01010G16KT 335V035 10SM CLR 14/01 A3038 RMK AO2
KGVT 191410Z AUTO 02008G20KT 10SM CLR 14/01 A3038 RMK AO2